Time;durP1;ratioP1;P1;durP2;ratioP2;P2;SDS_P1;SDS_P2;PMS_P1;PMS_P2;Temp;Humidity;BMP_temperature;BMP_pressure;BME280_temperature;BME280_humidity;BME280_pressure;Samples;Min_cycle;Max_cycle;Signal;HPM_P1;HPM_P2
2024/02/06 00:01:50;;;;;;;12.75;8.63;;;;;;;;;;5038927;28;20048;-79
2024/02/06 00:04:17;;;;;;;13.65;7.85;;;;;;;;;;5055314;28;20053;-78
2024/02/06 00:06:44;;;;;;;12.13;7.78;;;;;;;;;;5058336;28;20048;-79
2024/02/06 00:09:11;;;;;;;15.57;7.70;;;;;;;;;;5054839;28;20061;-79
2024/02/06 00:11:38;;;;;;;13.20;8.65;;;;;;;;;;5057299;28;20091;-79
2024/02/06 00:14:10;;;;;;;12.00;7.78;;;;;;;;;;5072072;28;20345;-79
2024/02/06 00:16:40;;;;;;;15.73;8.45;;;;;;;;;;5056340;28;20053;-78
2024/02/06 00:19:07;;;;;;;14.02;8.43;;;;;;;;;;5056102;28;20585;-79
2024/02/06 00:21:34;;;;;;;12.98;7.65;;;;;;;;;;5054634;28;20120;-79
2024/02/06 00:24:03;;;;;;;12.65;7.55;;;;;;;;;;5072929;28;20474;-80
2024/02/06 00:26:30;;;;;;;12.85;8.65;;;;;;;;;;5055488;28;20423;-79
2024/02/06 00:28:56;;;;;;;15.30;7.80;;;;;;;;;;5056336;28;20094;-80
2024/02/06 00:31:23;;;;;;;13.32;7.45;;;;;;;;;;5058246;28;20457;-79
2024/02/06 00:33:51;;;;;;;12.50;7.78;;;;;;;;;;5056908;28;20052;-80
2024/02/06 00:36:18;;;;;;;14.77;8.68;;;;;;;;;;5074000;28;20052;-80
2024/02/06 00:38:45;;;;;;;17.50;8.90;;;;;;;;;;5043587;28;20048;-80
2024/02/06 00:41:11;;;;;;;12.40;7.75;;;;;;;;;;5056974;28;20044;-79
2024/02/06 00:43:38;;;;;;;12.48;7.28;;;;;;;;;;5056063;28;20060;-79
2024/02/06 00:46:05;;;;;;;13.52;8.15;;;;;;;;;;5073889;28;20079;-80
2024/02/06 00:48:32;;;;;;;12.85;7.90;;;;;;;;;;5043437;28;20053;-80
2024/02/06 00:50:59;;;;;;;16.90;9.05;;;;;;;;;;5043474;28;20065;-80
2024/02/06 00:53:27;;;;;;;13.85;8.10;;;;;;;;;;5042307;28;20102;-80
2024/02/06 00:55:53;;;;;;;13.02;7.65;;;;;;;;;;5044082;28;20057;-78
2024/02/06 00:58:20;;;;;;;14.07;8.20;;;;;;;;;;5049144;28;20053;-79
2024/02/06 01:00:47;;;;;;;14.52;7.20;;;;;;;;;;5083028;28;20061;-78
2024/02/06 01:03:14;;;;;;;13.65;7.03;;;;;;;;;;5050577;28;20048;-79
2024/02/06 01:05:41;;;;;;;12.57;7.95;;;;;;;;;;5050392;28;20041;-79
2024/02/06 01:08:08;;;;;;;15.10;7.93;;;;;;;;;;5057489;28;20045;-77
2024/02/06 01:10:34;;;;;;;15.07;8.07;;;;;;;;;;5083335;28;20033;-77
2024/02/06 01:13:01;;;;;;;10.20;6.68;;;;;;;;;;5098910;28;20041;-79
2024/02/06 01:15:28;;;;;;;10.48;7.32;;;;;;;;;;5061439;28;20065;-79
2024/02/06 01:17:55;;;;;;;10.32;6.45;;;;;;;;;;5082786;28;20136;-79
2024/02/06 01:20:21;;;;;;;10.27;7.60;;;;;;;;;;5077985;28;20132;-80
2024/02/06 01:22:48;;;;;;;11.15;7.20;;;;;;;;;;5046432;28;20098;-79
2024/02/06 01:25:15;;;;;;;14.25;7.03;;;;;;;;;;5076387;28;20164;-79
2024/02/06 01:27:42;;;;;;;13.45;7.45;;;;;;;;;;5063268;28;20438;-79
2024/02/06 01:30:08;;;;;;;11.98;6.85;;;;;;;;;;5065808;28;20060;-80
2024/02/06 01:32:35;;;;;;;12.45;6.07;;;;;;;;;;5065103;28;20049;-79
2024/02/06 01:35:02;;;;;;;11.65;6.90;;;;;;;;;;5061241;28;20063;-78
2024/02/06 01:37:29;;;;;;;13.93;7.25;;;;;;;;;;5048518;28;20056;-79
2024/02/06 01:39:56;;;;;;;10.77;6.60;;;;;;;;;;5063620;28;20131;-79
2024/02/06 01:42:22;;;;;;;9.27;6.90;;;;;;;;;;5062113;28;20045;-79
2024/02/06 01:44:49;;;;;;;15.48;6.35;;;;;;;;;;5061366;28;20564;-79
2024/02/06 01:47:15;;;;;;;12.57;5.85;;;;;;;;;;5078874;28;20053;-79
2024/02/06 01:49:43;;;;;;;10.20;6.55;;;;;;;;;;5078632;28;20107;-79
2024/02/06 01:52:10;;;;;;;10.65;6.70;;;;;;;;;;5080120;28;20084;-79
2024/02/06 01:54:37;;;;;;;12.40;7.22;;;;;;;;;;5044706;28;20059;-79
2024/02/06 01:57:04;;;;;;;9.48;6.15;;;;;;;;;;5063082;28;20060;-79
2024/02/06 01:59:31;;;;;;;9.10;6.25;;;;;;;;;;5080621;28;20473;-79
2024/02/06 02:01:57;;;;;;;11.60;5.68;;;;;;;;;;5065178;28;20059;-79
2024/02/06 02:04:24;;;;;;;14.68;5.40;;;;;;;;;;5078242;28;20049;-78
2024/02/06 02:06:51;;;;;;;9.50;5.47;;;;;;;;;;5079750;28;20049;-79
2024/02/06 02:09:18;;;;;;;15.00;6.30;;;;;;;;;;5062001;28;20323;-79
2024/02/06 02:11:45;;;;;;;10.23;6.00;;;;;;;;;;5061889;28;20106;-78
2024/02/06 02:14:11;;;;;;;14.68;6.80;;;;;;;;;;5059615;28;20053;-79
2024/02/06 02:16:38;;;;;;;12.70;6.57;;;;;;;;;;5045541;28;20049;-79
2024/02/06 02:19:05;;;;;;;11.75;6.22;;;;;;;;;;5078256;28;20063;-79
2024/02/06 02:21:31;;;;;;;10.27;6.13;;;;;;;;;;5077867;28;20048;-79
2024/02/06 02:23:58;;;;;;;12.57;5.75;;;;;;;;;;5042842;28;20049;-79
2024/02/06 02:26:25;;;;;;;15.07;6.63;;;;;;;;;;5061105;28;20063;-79
2024/02/06 02:28:51;;;;;;;12.70;6.05;;;;;;;;;;5061292;28;20107;-79
2024/02/06 02:31:18;;;;;;;8.90;6.18;;;;;;;;;;5061639;28;20083;-79
2024/02/06 02:33:45;;;;;;;10.40;5.68;;;;;;;;;;5058923;28;20053;-79
2024/02/06 02:36:11;;;;;;;10.48;5.85;;;;;;;;;;5060861;28;20111;-79
2024/02/06 02:38:39;;;;;;;9.50;5.43;;;;;;;;;;5076044;28;20053;-79
2024/02/06 02:41:06;;;;;;;10.90;5.72;;;;;;;;;;5077101;28;20106;-79
2024/02/06 02:43:33;;;;;;;12.95;5.75;;;;;;;;;;5076278;28;20056;-79
2024/02/06 02:45:59;;;;;;;9.65;5.47;;;;;;;;;;5075951;28;20060;-78
2024/02/06 02:48:26;;;;;;;12.85;6.60;;;;;;;;;;5056351;28;20111;-79
2024/02/06 02:50:53;;;;;;;14.18;5.05;;;;;;;;;;5032488;28;20063;-78
2024/02/06 02:53:19;;;;;;;12.95;6.05;;;;;;;;;;5039923;28;20065;-78
2024/02/06 02:55:46;;;;;;;9.48;4.90;;;;;;;;;;5056030;28;20057;-78
2024/02/06 02:58:13;;;;;;;9.98;6.55;;;;;;;;;;5074519;28;20057;-78
2024/02/06 03:00:39;;;;;;;11.88;6.05;;;;;;;;;;5057531;28;20061;-79
2024/02/06 03:03:07;;;;;;;11.55;6.03;;;;;;;;;;5075633;28;20095;-78
2024/02/06 03:05:33;;;;;;;9.48;6.07;;;;;;;;;;5061191;28;20052;-78
2024/02/06 03:08:01;;;;;;;12.93;5.53;;;;;;;;;;5060242;28;20471;-79
2024/02/06 03:10:28;;;;;;;11.18;7.57;;;;;;;;;;5056867;28;20122;-79
2024/02/06 03:12:55;;;;;;;9.57;5.82;;;;;;;;;;5078091;28;20048;-79
2024/02/06 03:15:21;;;;;;;15.35;6.38;;;;;;;;;;5074335;28;20080;-78
2024/02/06 03:17:51;;;;;;;12.65;6.40;;;;;;;;;;5062256;28;20469;-79
2024/02/06 03:20:19;;;;;;;13.82;6.70;;;;;;;;;;5060453;28;20095;-80
2024/02/06 03:22:46;;;;;;;12.63;6.63;;;;;;;;;;5060093;28;20049;-79
2024/02/06 03:25:13;;;;;;;11.60;6.05;;;;;;;;;;5072534;28;20049;-79
2024/02/06 03:27:42;;;;;;;11.32;6.25;;;;;;;;;;5062556;28;20114;-78
2024/02/06 03:30:09;;;;;;;11.98;5.95;;;;;;;;;;5078135;28;20438;-78
2024/02/06 03:32:36;;;;;;;12.10;6.93;;;;;;;;;;5061291;28;20110;-79
2024/02/06 03:35:03;;;;;;;9.77;6.03;;;;;;;;;;5040268;28;20045;-79
2024/02/06 03:37:29;;;;;;;11.98;6.07;;;;;;;;;;5055982;28;20057;-78
2024/02/06 03:39:56;;;;;;;14.80;6.15;;;;;;;;;;5059578;28;20055;-79
2024/02/06 03:42:23;;;;;;;13.25;7.07;;;;;;;;;;5061280;28;20095;-79
2024/02/06 03:44:49;;;;;;;13.65;6.65;;;;;;;;;;5075060;28;20427;-79
2024/02/06 03:47:16;;;;;;;11.98;6.90;;;;;;;;;;5059240;28;20102;-78
2024/02/06 03:49:43;;;;;;;10.70;6.70;;;;;;;;;;5074237;28;20445;-79
2024/02/06 03:52:10;;;;;;;10.75;6.88;;;;;;;;;;5074732;28;20065;-79
2024/02/06 03:54:37;;;;;;;12.80;6.68;;;;;;;;;;5059160;28;20084;-78
2024/02/06 03:57:03;;;;;;;13.68;6.38;;;;;;;;;;5067223;28;20102;-80
2024/02/06 03:59:31;;;;;;;12.85;6.30;;;;;;;;;;5072626;28;20048;-78
2024/02/06 04:01:58;;;;;;;11.50;6.63;;;;;;;;;;5085523;28;20071;-78
2024/02/06 04:04:25;;;;;;;11.75;6.38;;;;;;;;;;5087835;28;20406;-79
2024/02/06 04:06:51;;;;;;;10.43;6.85;;;;;;;;;;5031100;28;20063;-79
2024/02/06 04:09:19;;;;;;;10.45;7.25;;;;;;;;;;5070100;28;20045;-79
2024/02/06 04:11:45;;;;;;;18.38;7.57;;;;;;;;;;5069238;28;20091;-78
2024/02/06 04:14:12;;;;;;;12.15;6.78;;;;;;;;;;5053255;28;20045;-79
2024/02/06 04:16:39;;;;;;;10.38;6.55;;;;;;;;;;5034238;28;20072;-79
2024/02/06 04:19:05;;;;;;;12.15;6.78;;;;;;;;;;5075130;28;20049;-78
2024/02/06 04:21:32;;;;;;;16.23;7.18;;;;;;;;;;5064791;28;20045;-78
2024/02/06 04:23:59;;;;;;;16.35;7.72;;;;;;;;;;5057602;28;20483;-78
2024/02/06 04:26:26;;;;;;;11.27;6.88;;;;;;;;;;5052565;28;20186;-78
2024/02/06 04:28:53;;;;;;;11.20;6.38;;;;;;;;;;5050999;28;20380;-78
2024/02/06 04:31:20;;;;;;;10.15;6.25;;;;;;;;;;5073397;28;20127;-78
2024/02/06 04:33:46;;;;;;;14.43;7.60;;;;;;;;;;5058715;28;20505;-79
2024/02/06 04:36:13;;;;;;;12.02;6.00;;;;;;;;;;5058020;28;20053;-81
2024/02/06 04:38:40;;;;;;;14.93;6.35;;;;;;;;;;5058881;28;20106;-81
2024/02/06 04:41:06;;;;;;;12.82;6.43;;;;;;;;;;5075786;28;20110;-81
2024/02/06 04:43:33;;;;;;;10.68;6.47;;;;;;;;;;5074038;28;20049;-81
2024/02/06 04:46:00;;;;;;;12.57;6.28;;;;;;;;;;5072716;28;20395;-81
2024/02/06 04:48:27;;;;;;;10.07;6.25;;;;;;;;;;5070914;28;20356;-79
2024/02/06 04:50:53;;;;;;;14.85;6.82;;;;;;;;;;5050577;28;20144;-78
2024/02/06 04:53:20;;;;;;;12.00;5.80;;;;;;;;;;5072124;28;20106;-77
2024/02/06 04:55:46;;;;;;;10.93;6.50;;;;;;;;;;5055377;28;20049;-80
2024/02/06 04:58:13;;;;;;;14.73;6.85;;;;;;;;;;5053090;28;20462;-80
2024/02/06 05:00:40;;;;;;;11.18;5.68;;;;;;;;;;5034932;28;20083;-80
2024/02/06 05:03:07;;;;;;;13.10;6.55;;;;;;;;;;5058096;28;20053;-80
2024/02/06 05:05:34;;;;;;;12.27;5.43;;;;;;;;;;5058323;28;20056;-78
2024/02/06 05:08:01;;;;;;;10.25;5.35;;;;;;;;;;5070102;28;20056;-78
2024/02/06 05:10:28;;;;;;;11.07;5.75;;;;;;;;;;5065318;28;20041;-77
2024/02/06 05:12:55;;;;;;;9.73;6.38;;;;;;;;;;5064808;28;20426;-78
2024/02/06 05:15:22;;;;;;;10.73;5.18;;;;;;;;;;5058943;28;20079;-77
2024/02/06 05:17:49;;;;;;;9.93;5.38;;;;;;;;;;5056666;28;20053;-78
2024/02/06 05:20:15;;;;;;;9.73;5.43;;;;;;;;;;5065861;28;20140;-78
2024/02/06 05:22:43;;;;;;;9.18;5.30;;;;;;;;;;5053698;28;20461;-78
2024/02/06 05:25:09;;;;;;;12.35;6.00;;;;;;;;;;5036969;28;20049;-80
2024/02/06 05:27:37;;;;;;;9.82;5.88;;;;;;;;;;5041700;28;20049;-77
2024/02/06 05:30:05;;;;;;;10.75;6.25;;;;;;;;;;5069512;28;20060;-78
2024/02/06 05:32:38;;;;;;;9.27;6.15;;;;;;;;;;5050422;28;20055;-78
2024/02/06 05:35:04;;;;;;;8.80;5.13;;;;;;;;;;5051080;28;20057;-79
2024/02/06 05:37:31;;;;;;;9.75;6.30;;;;;;;;;;5054258;28;20049;-78
2024/02/06 05:39:58;;;;;;;11.55;6.72;;;;;;;;;;5064860;28;20046;-78
2024/02/06 05:42:25;;;;;;;13.77;7.45;;;;;;;;;;5035872;28;20052;-79
2024/02/06 05:44:51;;;;;;;9.88;5.97;;;;;;;;;;5080101;28;20052;-79
2024/02/06 05:47:18;;;;;;;14.13;6.85;;;;;;;;;;5061292;28;20502;-78
2024/02/06 05:49:45;;;;;;;12.20;6.57;;;;;;;;;;5078291;28;20072;-79
2024/02/06 05:52:12;;;;;;;9.90;6.18;;;;;;;;;;5058458;28;20049;-78
2024/02/06 05:54:39;;;;;;;6.68;5.00;;;;;;;;;;5074255;28;20060;-79
2024/02/06 05:57:05;;;;;;;12.20;5.40;;;;;;;;;;5057471;28;20056;-79
2024/02/06 05:59:32;;;;;;;11.85;5.95;;;;;;;;;;5058172;28;20580;-79
2024/02/06 06:01:59;;;;;;;11.82;5.97;;;;;;;;;;5070941;28;20495;-79
2024/02/06 06:04:25;;;;;;;9.13;5.15;;;;;;;;;;5042699;28;20060;-79
2024/02/06 06:06:56;;;;;;;12.43;5.57;;;;;;;;;;5074104;28;20049;-79
2024/02/06 06:09:23;;;;;;;16.65;6.65;;;;;;;;;;5074335;28;20055;-79
2024/02/06 06:11:49;;;;;;;11.63;6.10;;;;;;;;;;5058268;28;20469;-80
2024/02/06 06:14:16;;;;;;;11.88;6.20;;;;;;;;;;5069719;28;20626;-80
2024/02/06 06:16:43;;;;;;;16.15;8.20;;;;;;;;;;5073463;28;20064;-79
2024/02/06 06:19:09;;;;;;;13.35;6.40;;;;;;;;;;5076525;28;20084;-80
2024/02/06 06:21:38;;;;;;;7.60;5.10;;;;;;;;;;5075745;28;20060;-80
2024/02/06 06:24:08;;;;;;;7.95;4.93;;;;;;;;;;5074638;28;20522;-79
2024/02/06 06:26:37;;;;;;;7.70;5.35;;;;;;;;;;5073669;28;20049;-79
2024/02/06 06:29:04;;;;;;;15.38;6.93;;;;;;;;;;5058150;28;20495;-79
2024/02/06 06:31:30;;;;;;;10.38;5.68;;;;;;;;;;5074459;28;20048;-79
2024/02/06 06:33:57;;;;;;;9.57;5.18;;;;;;;;;;5074011;28;20055;-80
2024/02/06 06:36:24;;;;;;;13.77;6.22;;;;;;;;;;5073679;28;20410;-80
2024/02/06 06:38:51;;;;;;;11.93;5.50;;;;;;;;;;5057031;28;20465;-78
2024/02/06 06:41:17;;;;;;;9.55;5.20;;;;;;;;;;5073314;28;20045;-78
2024/02/06 06:43:44;;;;;;;8.10;4.75;;;;;;;;;;5057292;28;20562;-79
2024/02/06 06:46:11;;;;;;;9.57;4.65;;;;;;;;;;5057185;28;20053;-78
2024/02/06 06:48:38;;;;;;;7.70;4.82;;;;;;;;;;5072542;28;20414;-78
2024/02/06 06:51:05;;;;;;;7.45;4.72;;;;;;;;;;5085651;28;20060;-76
2024/02/06 06:53:31;;;;;;;10.63;4.50;;;;;;;;;;5094134;28;20045;-76
2024/02/06 06:55:58;;;;;;;7.10;4.50;;;;;;;;;;5070967;28;20071;-78
2024/02/06 06:58:24;;;;;;;6.50;4.07;;;;;;;;;;5073060;28;20114;-78
2024/02/06 07:00:53;;;;;;;6.70;3.95;;;;;;;;;;5057325;28;20049;-78
2024/02/06 07:03:20;;;;;;;9.57;4.60;;;;;;;;;;5054285;28;20546;-76
2024/02/06 07:05:51;;;;;;;12.93;4.50;;;;;;;;;;5069101;28;20051;-78
2024/02/06 07:08:18;;;;;;;10.90;4.53;;;;;;;;;;5068997;28;20044;-78
2024/02/06 07:10:44;;;;;;;9.63;5.00;;;;;;;;;;5068360;28;20506;-77
2024/02/06 07:13:11;;;;;;;9.25;4.90;;;;;;;;;;5067672;28;20053;-77
2024/02/06 07:15:38;;;;;;;6.13;4.22;;;;;;;;;;5052132;28;20048;-77
2024/02/06 07:18:05;;;;;;;11.93;4.45;;;;;;;;;;5067023;28;20060;-77
2024/02/06 07:20:31;;;;;;;6.25;3.60;;;;;;;;;;5047667;28;20056;-77
2024/02/06 07:22:58;;;;;;;9.55;4.85;;;;;;;;;;5066157;28;20049;-77
2024/02/06 07:25:25;;;;;;;11.70;4.38;;;;;;;;;;5065685;28;20131;-77
2024/02/06 07:27:51;;;;;;;5.68;3.83;;;;;;;;;;5065642;28;20053;-77
2024/02/06 07:30:18;;;;;;;10.00;4.45;;;;;;;;;;5049581;28;20052;-77
2024/02/06 07:32:59;;;;;;;8.55;4.10;;;;;;;;;;5049684;28;20049;-77
2024/02/06 07:35:26;;;;;;;12.27;3.83;;;;;;;;;;5065380;28;20088;-77
2024/02/06 07:37:52;;;;;;;6.88;3.90;;;;;;;;;;5065748;28;20064;-77
2024/02/06 07:40:19;;;;;;;6.32;3.42;;;;;;;;;;5065613;28;20053;-76
2024/02/06 07:42:49;;;;;;;5.30;3.75;;;;;;;;;;5065392;28;20659;-78
2024/02/06 07:45:16;;;;;;;7.78;3.40;;;;;;;;;;5065456;28;20045;-77
2024/02/06 07:47:43;;;;;;;4.93;3.97;;;;;;;;;;5061349;28;20049;-77
2024/02/06 07:50:10;;;;;;;12.48;4.30;;;;;;;;;;5065600;28;20052;-77
2024/02/06 07:52:37;;;;;;;10.10;4.72;;;;;;;;;;5066141;28;20045;-78
2024/02/06 07:55:04;;;;;;;7.95;4.20;;;;;;;;;;5050316;28;20048;-77
2024/02/06 07:57:31;;;;;;;10.50;3.50;;;;;;;;;;5065868;28;20053;-76
2024/02/06 07:59:57;;;;;;;9.38;4.63;;;;;;;;;;5067678;28;20053;-77
2024/02/06 08:02:24;;;;;;;9.57;4.40;;;;;;;;;;5071065;28;20415;-82
2024/02/06 08:04:53;;;;;;;6.68;3.97;;;;;;;;;;5070336;28;20118;-79
2024/02/06 08:07:20;;;;;;;8.68;4.20;;;;;;;;;;5054224;28;20126;-78
2024/02/06 08:09:47;;;;;;;5.78;4.30;;;;;;;;;;5032813;28;20057;-77
2024/02/06 08:12:14;;;;;;;9.82;4.13;;;;;;;;;;5068701;28;20052;-80
2024/02/06 08:14:41;;;;;;;8.90;4.10;;;;;;;;;;5063629;28;20075;-78
2024/02/06 08:17:08;;;;;;;6.20;3.90;;;;;;;;;;5031296;28;20063;-77
2024/02/06 08:19:35;;;;;;;5.72;3.65;;;;;;;;;;5036470;28;20049;-78
2024/02/06 08:22:02;;;;;;;10.23;4.82;;;;;;;;;;5046809;28;20046;-77
2024/02/06 08:24:29;;;;;;;5.93;3.03;;;;;;;;;;5012424;28;20052;-78
2024/02/06 08:26:56;;;;;;;5.80;3.20;;;;;;;;;;5046253;28;20139;-77
2024/02/06 08:29:23;;;;;;;5.78;3.00;;;;;;;;;;5029000;28;20099;-77
2024/02/06 08:31:49;;;;;;;4.22;2.95;;;;;;;;;;5040471;28;20055;-77
2024/02/06 08:34:16;;;;;;;8.00;4.13;;;;;;;;;;5046982;28;20049;-77
2024/02/06 08:36:43;;;;;;;6.47;3.55;;;;;;;;;;5040060;28;20393;-78
2024/02/06 08:39:10;;;;;;;7.95;3.95;;;;;;;;;;5039119;28;20076;-78
2024/02/06 08:41:36;;;;;;;10.05;4.30;;;;;;;;;;5025421;28;20583;-78
2024/02/06 08:44:03;;;;;;;7.93;4.18;;;;;;;;;;5039235;28;20057;-77
2024/02/06 08:46:30;;;;;;;4.85;2.92;;;;;;;;;;5049781;28;20060;-80
2024/02/06 08:48:57;;;;;;;7.35;3.40;;;;;;;;;;5064209;28;20056;-77
2024/02/06 08:51:24;;;;;;;9.25;4.55;;;;;;;;;;5044683;28;20084;-77
2024/02/06 08:53:50;;;;;;;6.72;4.13;;;;;;;;;;5045144;28;20076;-77
2024/02/06 08:56:17;;;;;;;11.82;4.13;;;;;;;;;;5059231;28;20553;-76
2024/02/06 08:58:45;;;;;;;7.22;3.25;;;;;;;;;;5043280;28;20064;-77
2024/02/06 09:01:12;;;;;;;7.82;3.38;;;;;;;;;;5047671;28;20103;-77
2024/02/06 09:03:40;;;;;;;3.80;2.80;;;;;;;;;;5041331;28;20479;-77
2024/02/06 09:06:06;;;;;;;6.13;3.58;;;;;;;;;;5048599;28;20094;-77
2024/02/06 09:08:33;;;;;;;5.00;3.47;;;;;;;;;;5046109;28;20055;-77
2024/02/06 09:11:00;;;;;;;10.20;2.88;;;;;;;;;;5044017;28;20064;-77
2024/02/06 09:13:27;;;;;;;7.10;3.42;;;;;;;;;;5032085;28;20053;-77
2024/02/06 09:15:53;;;;;;;6.60;2.95;;;;;;;;;;5053648;28;20406;-78
2024/02/06 09:18:20;;;;;;;3.92;2.55;;;;;;;;;;5056017;28;20057;-78
2024/02/06 09:20:47;;;;;;;6.53;3.33;;;;;;;;;;5041105;28;20053;-77
2024/02/06 09:23:14;;;;;;;5.65;2.85;;;;;;;;;;5074813;28;20057;-77
2024/02/06 09:25:43;;;;;;;8.73;2.95;;;;;;;;;;5064040;28;20049;-78
2024/02/06 09:28:10;;;;;;;7.95;2.88;;;;;;;;;;5057180;28;20049;-78
2024/02/06 09:30:39;;;;;;;4.97;2.38;;;;;;;;;;5053270;28;20076;-78
2024/02/06 09:33:06;;;;;;;7.97;2.90;;;;;;;;;;5055596;28;20037;-77
2024/02/06 09:35:33;;;;;;;6.20;3.08;;;;;;;;;;5055693;28;20049;-78
2024/02/06 09:38:00;;;;;;;5.55;2.97;;;;;;;;;;5058590;28;20102;-78
2024/02/06 09:40:27;;;;;;;12.65;3.40;;;;;;;;;;5056244;28;20118;-78
2024/02/06 09:42:53;;;;;;;5.05;3.00;;;;;;;;;;5059415;28;20514;-77
2024/02/06 09:45:20;;;;;;;6.93;3.28;;;;;;;;;;5060577;28;20048;-78
2024/02/06 09:47:47;;;;;;;5.22;3.25;;;;;;;;;;5062654;28;20469;-78
2024/02/06 09:50:14;;;;;;;3.90;2.63;;;;;;;;;;5042937;28;20075;-78
2024/02/06 09:52:42;;;;;;;7.97;3.20;;;;;;;;;;5057178;28;20053;-78
2024/02/06 09:55:11;;;;;;;4.93;2.67;;;;;;;;;;5053159;28;20059;-77
2024/02/06 09:57:38;;;;;;;5.55;2.58;;;;;;;;;;5036277;28;20049;-78
2024/02/06 10:00:07;;;;;;;10.73;3.55;;;;;;;;;;5047902;28;20061;-77
2024/02/06 10:02:34;;;;;;;5.40;2.95;;;;;;;;;;5058511;28;20048;-78
2024/02/06 10:05:00;;;;;;;4.25;2.17;;;;;;;;;;5059717;28;20045;-78
2024/02/06 10:07:27;;;;;;;6.50;2.72;;;;;;;;;;5033287;28;20045;-78
2024/02/06 10:09:54;;;;;;;5.72;2.20;;;;;;;;;;5033898;28;20049;-78
2024/02/06 10:12:21;;;;;;;5.65;2.90;;;;;;;;;;5069461;28;20101;-76
2024/02/06 10:14:48;;;;;;;3.58;2.50;;;;;;;;;;5053902;28;20052;-78
2024/02/06 10:17:18;;;;;;;9.07;2.55;;;;;;;;;;5070322;28;20053;-76
2024/02/06 10:19:44;;;;;;;6.55;1.98;;;;;;;;;;5061381;28;20507;-78
2024/02/06 10:22:12;;;;;;;7.55;2.30;;;;;;;;;;5058583;28;20053;-78
2024/02/06 10:24:40;;;;;;;3.83;2.30;;;;;;;;;;5041400;28;20045;-77
2024/02/06 10:27:06;;;;;;;8.13;2.63;;;;;;;;;;5038149;28;20045;-78
2024/02/06 10:29:34;;;;;;;6.65;2.47;;;;;;;;;;5051328;28;20115;-78
2024/02/06 10:32:13;;;;;;;3.83;2.13;;;;;;;;;;5053572;28;20083;-78
2024/02/06 10:34:40;;;;;;;4.55;2.35;;;;;;;;;;5041799;28;20515;-78
2024/02/06 10:37:07;;;;;;;4.38;1.88;;;;;;;;;;5052261;28;20071;-77
2024/02/06 10:39:34;;;;;;;7.50;2.15;;;;;;;;;;5054636;28;20060;-78
2024/02/06 10:42:01;;;;;;;3.42;2.28;;;;;;;;;;5032581;28;20045;-77
2024/02/06 10:44:31;;;;;;;3.53;1.80;;;;;;;;;;5060118;28;20052;-77
2024/02/06 10:46:59;;;;;;;6.82;3.33;;;;;;;;;;5055780;28;20076;-78
2024/02/06 10:49:26;;;;;;;2.95;2.40;;;;;;;;;;5058348;28;20049;-77
2024/02/06 10:52:03;;;;;;;5.93;2.30;;;;;;;;;;5058441;28;20091;-77
2024/02/06 10:54:30;;;;;;;5.10;2.70;;;;;;;;;;5050857;28;20049;-77
2024/02/06 10:57:01;;;;;;;3.67;2.05;;;;;;;;;;5036010;28;20048;-78
2024/02/06 10:59:29;;;;;;;5.45;2.05;;;;;;;;;;5054482;28;20560;-77
2024/02/06 11:01:56;;;;;;;3.72;1.33;;;;;;;;;;5063387;28;20045;-78
2024/02/06 11:04:23;;;;;;;3.60;2.03;;;;;;;;;;5049076;28;20049;-77
2024/02/06 11:06:50;;;;;;;2.95;1.60;;;;;;;;;;5036867;28;20053;-77
2024/02/06 11:09:18;;;;;;;4.82;1.80;;;;;;;;;;5067771;28;20109;-77
2024/02/06 11:11:44;;;;;;;7.13;2.25;;;;;;;;;;5057080;28;20078;-77
2024/02/06 11:14:11;;;;;;;2.03;1.63;;;;;;;;;;5038543;28;20100;-77
2024/02/06 11:16:40;;;;;;;2.97;1.73;;;;;;;;;;5057837;28;20303;-77
2024/02/06 11:19:16;;;;;;;2.85;1.70;;;;;;;;;;5040901;28;20056;-77
2024/02/06 11:21:44;;;;;;;3.33;1.25;;;;;;;;;;5057587;28;20075;-78
2024/02/06 11:24:11;;;;;;;2.42;1.25;;;;;;;;;;5055691;28;20045;-77
2024/02/06 11:26:38;;;;;;;2.40;1.38;;;;;;;;;;5044535;28;20459;-77
2024/02/06 11:29:08;;;;;;;4.55;1.20;;;;;;;;;;5065792;28;20056;-77
2024/02/06 11:31:38;;;;;;;4.63;1.10;;;;;;;;;;5066652;28;20044;-76
2024/02/06 11:34:15;;;;;;;5.55;1.40;;;;;;;;;;5050136;28;20057;-78
2024/02/06 11:36:42;;;;;;;1.80;1.23;;;;;;;;;;5047825;28;20057;-78
2024/02/06 11:39:09;;;;;;;6.53;1.00;;;;;;;;;;5059979;28;20080;-76
2024/02/06 11:41:36;;;;;;;3.40;1.00;;;;;;;;;;5066626;28;20053;-77
2024/02/06 11:44:11;;;;;;;3.45;1.10;;;;;;;;;;5066087;28;20053;-75
2024/02/06 11:46:41;;;;;;;2.92;1.42;;;;;;;;;;5065038;28;20065;-77
2024/02/06 11:49:08;;;;;;;6.20;1.13;;;;;;;;;;5049973;28;20044;-77
2024/02/06 11:51:35;;;;;;;7.95;1.40;;;;;;;;;;5082317;28;20057;-77
2024/02/06 11:54:11;;;;;;;2.83;1.25;;;;;;;;;;5083850;28;20053;-77
2024/02/06 11:56:39;;;;;;;2.35;0.98;;;;;;;;;;5064121;28;20045;-77
2024/02/06 11:59:06;;;;;;;5.38;1.20;;;;;;;;;;5062666;28;20399;-77
2024/02/06 12:01:33;;;;;;;3.38;1.02;;;;;;;;;;5070575;28;20051;-77
2024/02/06 12:04:05;;;;;;;1.95;0.95;;;;;;;;;;5071410;28;20045;-77
2024/02/06 12:06:32;;;;;;;2.70;1.35;;;;;;;;;;5070991;28;20060;-77
2024/02/06 12:09:07;;;;;;;4.45;1.20;;;;;;;;;;5068215;28;20414;-77
2024/02/06 12:11:43;;;;;;;4.53;2.22;;;;;;;;;;5079475;28;20060;-77
2024/02/06 12:14:14;;;;;;;6.43;2.70;;;;;;;;;;5051505;28;20115;-77
2024/02/06 12:16:41;;;;;;;2.40;1.30;;;;;;;;;;5051582;28;20076;-77
2024/02/06 12:19:09;;;;;;;3.78;1.65;;;;;;;;;;5063626;28;20053;-77
2024/02/06 12:21:36;;;;;;;7.78;1.42;;;;;;;;;;5051947;28;20089;-77
2024/02/06 12:24:03;;;;;;;2.15;1.10;;;;;;;;;;5052055;28;20060;-77
2024/02/06 12:26:30;;;;;;;2.05;1.50;;;;;;;;;;5052141;28;20053;-77
2024/02/06 12:29:03;;;;;;;4.32;1.10;;;;;;;;;;5068663;28;20106;-77
2024/02/06 12:31:33;;;;;;;3.30;1.13;;;;;;;;;;5067490;28;20056;-77
2024/02/06 12:34:00;;;;;;;2.50;1.05;;;;;;;;;;5068271;28;20075;-77
2024/02/06 12:36:27;;;;;;;3.70;1.50;;;;;;;;;;5068407;28;20056;-77
2024/02/06 12:38:54;;;;;;;3.50;1.17;;;;;;;;;;5044711;28;20053;-77
2024/02/06 12:41:23;;;;;;;4.25;1.00;;;;;;;;;;5052180;28;20045;-77
2024/02/06 12:43:50;;;;;;;3.92;0.93;;;;;;;;;;5051879;28;20140;-77
2024/02/06 12:46:17;;;;;;;3.28;1.10;;;;;;;;;;5044301;28;20053;-77
2024/02/06 12:48:44;;;;;;;2.60;1.02;;;;;;;;;;5050589;28;20145;-77
2024/02/06 12:51:11;;;;;;;9.07;1.42;;;;;;;;;;5067022;28;20045;-77
2024/02/06 12:53:38;;;;;;;6.25;1.58;;;;;;;;;;5048305;28;20434;-78
2024/02/06 12:56:04;;;;;;;6.53;1.15;;;;;;;;;;5066993;28;20053;-78
2024/02/06 12:58:34;;;;;;;4.03;1.15;;;;;;;;;;5066515;28;20053;-77
2024/02/06 13:01:00;;;;;;;4.72;0.98;;;;;;;;;;5066582;28;20057;-78
2024/02/06 13:03:37;;;;;;;6.10;1.75;;;;;;;;;;5067003;28;20049;-77
2024/02/06 13:06:05;;;;;;;2.83;1.25;;;;;;;;;;5051904;28;20125;-78
2024/02/06 13:08:32;;;;;;;5.47;1.42;;;;;;;;;;5066713;28;20541;-78
2024/02/06 13:11:09;;;;;;;10.80;1.48;;;;;;;;;;5050040;28;20080;-77
2024/02/06 13:13:35;;;;;;;5.45;1.33;;;;;;;;;;5033333;28;20068;-78
2024/02/06 13:16:03;;;;;;;7.95;1.00;;;;;;;;;;5066945;28;20135;-77
2024/02/06 13:18:35;;;;;;;5.50;1.63;;;;;;;;;;5066751;28;20140;-78
2024/02/06 13:21:05;;;;;;;4.25;1.13;;;;;;;;;;5051214;28;20060;-78
2024/02/06 13:23:31;;;;;;;6.88;1.23;;;;;;;;;;5033968;28;20045;-77
2024/02/06 13:25:59;;;;;;;5.70;1.50;;;;;;;;;;5066116;28;20049;-77
2024/02/06 13:28:26;;;;;;;5.03;1.77;;;;;;;;;;5049991;28;20049;-77
2024/02/06 13:30:53;;;;;;;4.20;1.27;;;;;;;;;;5066124;28;20060;-77
2024/02/06 13:33:19;;;;;;;4.20;1.67;;;;;;;;;;5067526;28;20074;-77
2024/02/06 13:35:46;;;;;;;5.95;1.60;;;;;;;;;;5045869;28;20065;-76
2024/02/06 13:38:13;;;;;;;3.83;2.05;;;;;;;;;;5060945;28;20499;-78
2024/02/06 13:40:40;;;;;;;5.50;2.35;;;;;;;;;;5069485;28;20056;-78
2024/02/06 13:43:07;;;;;;;5.20;1.33;;;;;;;;;;5068936;28;20059;-78
2024/02/06 13:45:34;;;;;;;2.38;1.10;;;;;;;;;;5068828;28;20457;-78
2024/02/06 13:48:00;;;;;;;6.97;1.17;;;;;;;;;;5070582;28;20048;-77
2024/02/06 13:50:27;;;;;;;4.13;1.00;;;;;;;;;;5068979;28;20049;-78
2024/02/06 13:52:54;;;;;;;5.28;1.15;;;;;;;;;;5050862;28;20107;-78
2024/02/06 13:55:30;;;;;;;7.38;1.98;;;;;;;;;;5049227;28;20085;-78
2024/02/06 13:57:57;;;;;;;4.38;1.30;;;;;;;;;;5049948;28;20071;-78
2024/02/06 14:00:27;;;;;;;6.88;0.98;;;;;;;;;;5066019;28;20422;-77
2024/02/06 14:02:54;;;;;;;5.32;1.80;;;;;;;;;;5066065;28;20053;-77
2024/02/06 14:05:21;;;;;;;8.82;1.27;;;;;;;;;;5069175;28;20045;-77
2024/02/06 14:07:51;;;;;;;1.67;1.02;;;;;;;;;;5052904;28;20049;-77
2024/02/06 14:10:18;;;;;;;5.35;1.30;;;;;;;;;;5069893;28;20444;-77
2024/02/06 14:12:45;;;;;;;2.40;1.10;;;;;;;;;;5052778;28;20269;-78
2024/02/06 14:15:16;;;;;;;4.10;1.20;;;;;;;;;;5069261;28;20061;-78
2024/02/06 14:17:44;;;;;;;2.38;1.52;;;;;;;;;;5052378;28;20099;-78
2024/02/06 14:20:13;;;;;;;2.75;1.00;;;;;;;;;;5053443;28;20400;-78
2024/02/06 14:22:40;;;;;;;2.63;1.13;;;;;;;;;;5052700;28;20049;-78
2024/02/06 14:25:08;;;;;;;5.57;1.00;;;;;;;;;;5052986;28;20049;-78
2024/02/06 14:27:35;;;;;;;4.78;1.17;;;;;;;;;;5069079;28;20099;-77
2024/02/06 14:30:03;;;;;;;4.22;1.02;;;;;;;;;;5069465;28;20099;-78
2024/02/06 14:32:30;;;;;;;4.35;1.70;;;;;;;;;;5033613;28;20053;-78
2024/02/06 14:34:57;;;;;;;3.72;1.08;;;;;;;;;;5061307;28;20053;-80
2024/02/06 14:37:24;;;;;;;3.20;1.05;;;;;;;;;;5076868;28;20041;-78
2024/02/06 14:39:50;;;;;;;4.70;1.38;;;;;;;;;;5040081;28;20140;-77